Cobre, Nevada
Current Conditions -  °F | °C
As of 12:15 PM on Friday 28 Nov 2014 (Local Time) from KENV Reporting Station
Clear Clear  
Wind Chill: 52°   Ceiling: Unl
Heat Index: 52°   Visibility: 10mi
Dew Point: 21°   Wind: 8mph
Humidity: 30%   Direction: 70°ENE
Pressure: 29.9"   Gusts: NA
Location:  41.0114°N, 114.57°W
Report Text: KENV 282015Z AUTO 07007KT 10SM CLR 11/M06 A2990 RMK AO1
Loading
Personal Weather Stations






























Interactive Weather Map New forecast layout! Learn more

10-Day Weather Forecast

Advertisements
Track Severe Weather on mobile